sensor_id;sensor_type;location;lat;lon;timestamp;P1;durP1;ratioP1;P2;durP2;ratioP2
51332;SDS011;37417;48.118;11.734;2024-02-15T00:02:23;1.40;;;0.80;;
51332;SDS011;37417;48.118;11.734;2024-02-15T00:05:09;1.63;;;0.80;;
51332;SDS011;37417;48.118;11.734;2024-02-15T00:07:55;2.40;;;0.98;;
51332;SDS011;37417;48.118;11.734;2024-02-15T00:10:40;1.30;;;1.00;;
51332;SDS011;37417;48.118;11.734;2024-02-15T00:13:26;0.90;;;0.77;;
51332;SDS011;37417;48.118;11.734;2024-02-15T00:16:14;1.55;;;0.80;;
51332;SDS011;37417;48.118;11.734;2024-02-15T00:19:00;1.27;;;0.95;;
51332;SDS011;37417;48.118;11.734;2024-02-15T00:21:46;2.55;;;0.90;;
51332;SDS011;37417;48.118;11.734;2024-02-15T00:24:31;1.65;;;0.95;;
51332;SDS011;37417;48.118;11.734;2024-02-15T00:27:17;1.38;;;0.98;;
51332;SDS011;37417;48.118;11.734;2024-02-15T00:30:03;2.33;;;1.20;;
51332;SDS011;37417;48.118;11.734;2024-02-15T00:32:48;1.77;;;0.82;;
51332;SDS011;37417;48.118;11.734;2024-02-15T00:35:34;1.67;;;0.90;;
51332;SDS011;37417;48.118;11.734;2024-02-15T00:38:19;1.48;;;0.68;;
51332;SDS011;37417;48.118;11.734;2024-02-15T00:41:05;1.13;;;0.63;;
51332;SDS011;37417;48.118;11.734;2024-02-15T00:43:51;2.78;;;1.15;;
51332;SDS011;37417;48.118;11.734;2024-02-15T00:46:37;0.88;;;0.70;;
51332;SDS011;37417;48.118;11.734;2024-02-15T00:49:22;2.28;;;0.90;;
51332;SDS011;37417;48.118;11.734;2024-02-15T00:52:08;0.95;;;0.77;;
51332;SDS011;37417;48.118;11.734;2024-02-15T00:54:53;1.40;;;0.80;;
51332;SDS011;37417;48.118;11.734;2024-02-15T00:57:39;0.65;;;0.57;;
51332;SDS011;37417;48.118;11.734;2024-02-15T01:00:25;1.02;;;0.68;;
51332;SDS011;37417;48.118;11.734;2024-02-15T01:03:11;0.65;;;0.50;;
51332;SDS011;37417;48.118;11.734;2024-02-15T01:05:57;1.25;;;0.70;;
51332;SDS011;37417;48.118;11.734;2024-02-15T01:08:42;1.02;;;0.75;;
51332;SDS011;37417;48.118;11.734;2024-02-15T01:11:29;0.80;;;0.60;;
51332;SDS011;37417;48.118;11.734;2024-02-15T01:14:14;1.00;;;0.70;;
51332;SDS011;37417;48.118;11.734;2024-02-15T01:17:00;1.20;;;0.50;;
51332;SDS011;37417;48.118;11.734;2024-02-15T01:19:46;1.40;;;0.90;;
51332;SDS011;37417;48.118;11.734;2024-02-15T01:22:32;1.00;;;0.80;;
51332;SDS011;37417;48.118;11.734;2024-02-15T01:25:17;0.82;;;0.65;;
51332;SDS011;37417;48.118;11.734;2024-02-15T01:28:03;1.77;;;0.60;;
51332;SDS011;37417;48.118;11.734;2024-02-15T01:30:49;0.95;;;0.60;;
51332;SDS011;37417;48.118;11.734;2024-02-15T01:33:35;1.52;;;0.75;;
51332;SDS011;37417;48.118;11.734;2024-02-15T01:36:21;0.90;;;0.47;;
51332;SDS011;37417;48.118;11.734;2024-02-15T01:39:07;1.02;;;0.80;;
51332;SDS011;37417;48.118;11.734;2024-02-15T01:41:53;0.40;;;0.30;;
51332;SDS011;37417;48.118;11.734;2024-02-15T01:44:41;2.15;;;0.55;;
51332;SDS011;37417;48.118;11.734;2024-02-15T01:47:29;1.85;;;0.70;;
51332;SDS011;37417;48.118;11.734;2024-02-15T01:50:14;0.82;;;0.50;;
51332;SDS011;37417;48.118;11.734;2024-02-15T01:53:01;0.65;;;0.52;;
51332;SDS011;37417;48.118;11.734;2024-02-15T01:55:50;0.82;;;0.55;;
51332;SDS011;37417;48.118;11.734;2024-02-15T01:58:37;0.85;;;0.50;;
51332;SDS011;37417;48.118;11.734;2024-02-15T02:01:25;1.52;;;0.70;;
51332;SDS011;37417;48.118;11.734;2024-02-15T02:04:11;0.63;;;0.50;;
51332;SDS011;37417;48.118;11.734;2024-02-15T02:06:57;0.43;;;0.25;;
51332;SDS011;37417;48.118;11.734;2024-02-15T02:09:44;1.13;;;0.75;;
51332;SDS011;37417;48.118;11.734;2024-02-15T02:12:31;0.47;;;0.40;;
51332;SDS011;37417;48.118;11.734;2024-02-15T02:15:16;1.67;;;0.57;;
51332;SDS011;37417;48.118;11.734;2024-02-15T02:18:02;0.82;;;0.60;;
51332;SDS011;37417;48.118;11.734;2024-02-15T02:20:50;0.90;;;0.57;;
51332;SDS011;37417;48.118;11.734;2024-02-15T02:23:35;0.98;;;0.57;;
51332;SDS011;37417;48.118;11.734;2024-02-15T02:26:21;0.57;;;0.40;;
51332;SDS011;37417;48.118;11.734;2024-02-15T02:29:07;0.70;;;0.65;;
51332;SDS011;37417;48.118;11.734;2024-02-15T02:31:53;3.70;;;0.60;;
51332;SDS011;37417;48.118;11.734;2024-02-15T02:34:38;0.77;;;0.68;;
51332;SDS011;37417;48.118;11.734;2024-02-15T02:37:26;0.90;;;0.70;;
51332;SDS011;37417;48.118;11.734;2024-02-15T02:40:11;0.63;;;0.55;;
51332;SDS011;37417;48.118;11.734;2024-02-15T02:42:58;0.47;;;0.43;;
51332;SDS011;37417;48.118;11.734;2024-02-15T02:45:47;1.25;;;0.38;;
51332;SDS011;37417;48.118;11.734;2024-02-15T02:48:32;1.05;;;0.50;;
51332;SDS011;37417;48.118;11.734;2024-02-15T02:51:18;0.93;;;0.50;;
51332;SDS011;37417;48.118;11.734;2024-02-15T02:54:03;0.50;;;0.50;;
51332;SDS011;37417;48.118;11.734;2024-02-15T02:56:51;0.85;;;0.57;;
51332;SDS011;37417;48.118;11.734;2024-02-15T02:59:37;0.50;;;0.40;;
51332;SDS011;37417;48.118;11.734;2024-02-15T03:02:25;0.77;;;0.40;;
51332;SDS011;37417;48.118;11.734;2024-02-15T03:05:11;1.00;;;0.50;;
51332;SDS011;37417;48.118;11.734;2024-02-15T03:07:57;2.63;;;0.55;;
51332;SDS011;37417;48.118;11.734;2024-02-15T03:10:43;0.95;;;0.50;;
51332;SDS011;37417;48.118;11.734;2024-02-15T03:13:28;0.95;;;0.50;;
51332;SDS011;37417;48.118;11.734;2024-02-15T03:16:14;1.05;;;0.57;;
51332;SDS011;37417;48.118;11.734;2024-02-15T03:19:01;1.23;;;0.60;;
51332;SDS011;37417;48.118;11.734;2024-02-15T03:21:50;0.38;;;0.30;;
51332;SDS011;37417;48.118;11.734;2024-02-15T03:24:37;0.88;;;0.63;;
51332;SDS011;37417;48.118;11.734;2024-02-15T03:27:23;1.40;;;0.50;;
51332;SDS011;37417;48.118;11.734;2024-02-15T03:30:08;1.25;;;0.60;;
51332;SDS011;37417;48.118;11.734;2024-02-15T03:32:55;1.00;;;0.60;;
51332;SDS011;37417;48.118;11.734;2024-02-15T03:35:42;0.52;;;0.40;;
51332;SDS011;37417;48.118;11.734;2024-02-15T03:38:27;0.38;;;0.38;;
51332;SDS011;37417;48.118;11.734;2024-02-15T03:41:14;0.40;;;0.35;;
51332;SDS011;37417;48.118;11.734;2024-02-15T03:44:00;1.20;;;0.63;;
51332;SDS011;37417;48.118;11.734;2024-02-15T03:46:45;0.40;;;0.40;;
51332;SDS011;37417;48.118;11.734;2024-02-15T03:49:36;1.02;;;0.60;;
51332;SDS011;37417;48.118;11.734;2024-02-15T03:52:22;1.45;;;0.70;;
51332;SDS011;37417;48.118;11.734;2024-02-15T03:55:07;1.00;;;0.65;;
51332;SDS011;37417;48.118;11.734;2024-02-15T03:57:53;0.77;;;0.47;;
51332;SDS011;37417;48.118;11.734;2024-02-15T04:00:40;2.42;;;0.50;;
51332;SDS011;37417;48.118;11.734;2024-02-15T04:03:26;1.65;;;0.77;;
51332;SDS011;37417;48.118;11.734;2024-02-15T04:06:11;0.85;;;0.40;;
51332;SDS011;37417;48.118;11.734;2024-02-15T04:08:57;0.60;;;0.60;;
51332;SDS011;37417;48.118;11.734;2024-02-15T04:11:46;1.02;;;0.60;;
51332;SDS011;37417;48.118;11.734;2024-02-15T04:14:35;1.95;;;0.70;;
51332;SDS011;37417;48.118;11.734;2024-02-15T04:17:20;1.02;;;0.50;;
51332;SDS011;37417;48.118;11.734;2024-02-15T04:20:07;0.60;;;0.47;;
51332;SDS011;37417;48.118;11.734;2024-02-15T04:22:53;1.45;;;0.90;;
51332;SDS011;37417;48.118;11.734;2024-02-15T04:25:40;1.13;;;0.63;;
51332;SDS011;37417;48.118;11.734;2024-02-15T04:28:26;0.50;;;0.50;;
51332;SDS011;37417;48.118;11.734;2024-02-15T04:31:12;2.63;;;0.60;;
51332;SDS011;37417;48.118;11.734;2024-02-15T04:33:58;0.93;;;0.70;;
51332;SDS011;37417;48.118;11.734;2024-02-15T04:36:46;2.00;;;0.82;;
51332;SDS011;37417;48.118;11.734;2024-02-15T04:39:35;3.03;;;0.60;;
51332;SDS011;37417;48.118;11.734;2024-02-15T04:42:21;0.68;;;0.50;;
51332;SDS011;37417;48.118;11.734;2024-02-15T04:45:07;0.52;;;0.45;;
51332;SDS011;37417;48.118;11.734;2024-02-15T04:47:56;2.97;;;0.68;;
51332;SDS011;37417;48.118;11.734;2024-02-15T04:50:42;0.73;;;0.60;;
51332;SDS011;37417;48.118;11.734;2024-02-15T04:53:28;0.50;;;0.43;;
51332;SDS011;37417;48.118;11.734;2024-02-15T04:56:17;1.15;;;0.82;;
51332;SDS011;37417;48.118;11.734;2024-02-15T04:59:03;1.23;;;0.77;;
51332;SDS011;37417;48.118;11.734;2024-02-15T05:01:48;0.60;;;0.50;;
51332;SDS011;37417;48.118;11.734;2024-02-15T05:04:50;1.13;;;0.57;;
51332;SDS011;37417;48.118;11.734;2024-02-15T05:07:43;1.88;;;0.75;;
51332;SDS011;37417;48.118;11.734;2024-02-15T05:10:29;0.90;;;0.60;;
51332;SDS011;37417;48.118;11.734;2024-02-15T05:13:14;0.85;;;0.68;;
51332;SDS011;37417;48.118;11.734;2024-02-15T05:16:01;1.17;;;0.80;;
51332;SDS011;37417;48.118;11.734;2024-02-15T05:18:47;1.00;;;0.55;;
51332;SDS011;37417;48.118;11.734;2024-02-15T05:21:33;1.85;;;0.93;;
51332;SDS011;37417;48.118;11.734;2024-02-15T05:24:19;1.85;;;0.50;;
51332;SDS011;37417;48.118;11.734;2024-02-15T05:27:04;2.75;;;0.93;;
51332;SDS011;37417;48.118;11.734;2024-02-15T05:29:50;1.02;;;0.73;;
51332;SDS011;37417;48.118;11.734;2024-02-15T05:32:38;1.75;;;0.63;;
51332;SDS011;37417;48.118;11.734;2024-02-15T05:35:28;1.15;;;0.73;;
51332;SDS011;37417;48.118;11.734;2024-02-15T05:38:13;0.85;;;0.50;;
51332;SDS011;37417;48.118;11.734;2024-02-15T05:41:01;1.33;;;0.65;;
51332;SDS011;37417;48.118;11.734;2024-02-15T05:43:46;1.08;;;0.68;;
51332;SDS011;37417;48.118;11.734;2024-02-15T05:46:33;3.80;;;1.10;;
51332;SDS011;37417;48.118;11.734;2024-02-15T05:49:22;3.00;;;1.20;;
51332;SDS011;37417;48.118;11.734;2024-02-15T05:52:10;1.33;;;0.77;;
51332;SDS011;37417;48.118;11.734;2024-02-15T05:54:56;1.65;;;0.80;;
51332;SDS011;37417;48.118;11.734;2024-02-15T05:57:42;1.70;;;0.60;;
51332;SDS011;37417;48.118;11.734;2024-02-15T06:00:28;2.10;;;0.73;;
51332;SDS011;37417;48.118;11.734;2024-02-15T06:03:16;1.58;;;0.55;;
51332;SDS011;37417;48.118;11.734;2024-02-15T06:06:01;1.25;;;0.88;;
51332;SDS011;37417;48.118;11.734;2024-02-15T06:08:51;1.95;;;0.98;;
51332;SDS011;37417;48.118;11.734;2024-02-15T06:11:37;3.03;;;1.27;;
51332;SDS011;37417;48.118;11.734;2024-02-15T06:14:23;3.33;;;1.77;;
51332;SDS011;37417;48.118;11.734;2024-02-15T06:17:09;3.83;;;1.40;;
51332;SDS011;37417;48.118;11.734;2024-02-15T06:19:56;2.15;;;1.70;;
51332;SDS011;37417;48.118;11.734;2024-02-15T06:22:42;2.33;;;1.33;;
51332;SDS011;37417;48.118;11.734;2024-02-15T06:25:27;1.48;;;1.33;;
51332;SDS011;37417;48.118;11.734;2024-02-15T06:28:14;6.57;;;1.48;;
51332;SDS011;37417;48.118;11.734;2024-02-15T06:31:19;1.58;;;1.13;;
51332;SDS011;37417;48.118;11.734;2024-02-15T06:34:23;1.92;;;0.82;;
51332;SDS011;37417;48.118;11.734;2024-02-15T06:37:37;2.10;;;1.20;;
51332;SDS011;37417;48.118;11.734;2024-02-15T06:40:41;2.88;;;0.95;;
51332;SDS011;37417;48.118;11.734;2024-02-15T06:43:27;1.50;;;0.80;;
51332;SDS011;37417;48.118;11.734;2024-02-15T06:46:12;0.95;;;0.75;;
51332;SDS011;37417;48.118;11.734;2024-02-15T06:48:59;1.30;;;0.73;;
51332;SDS011;37417;48.118;11.734;2024-02-15T06:51:47;0.85;;;0.70;;
51332;SDS011;37417;48.118;11.734;2024-02-15T06:54:33;2.83;;;1.17;;
51332;SDS011;37417;48.118;11.734;2024-02-15T06:57:20;1.58;;;0.82;;
51332;SDS011;37417;48.118;11.734;2024-02-15T07:00:06;1.55;;;0.70;;
51332;SDS011;37417;48.118;11.734;2024-02-15T07:02:52;4.13;;;0.90;;
51332;SDS011;37417;48.118;11.734;2024-02-15T07:05:38;3.53;;;0.93;;
51332;SDS011;37417;48.118;11.734;2024-02-15T07:08:24;1.23;;;0.73;;
51332;SDS011;37417;48.118;11.734;2024-02-15T07:11:09;1.80;;;1.10;;
51332;SDS011;37417;48.118;11.734;2024-02-15T07:13:55;0.73;;;0.63;;
51332;SDS011;37417;48.118;11.734;2024-02-15T07:16:40;2.67;;;1.58;;
51332;SDS011;37417;48.118;11.734;2024-02-15T07:19:29;4.95;;;2.13;;
51332;SDS011;37417;48.118;11.734;2024-02-15T07:22:18;5.03;;;1.80;;
51332;SDS011;37417;48.118;11.734;2024-02-15T07:25:04;1.65;;;1.30;;
51332;SDS011;37417;48.118;11.734;2024-02-15T07:27:49;1.70;;;1.27;;
51332;SDS011;37417;48.118;11.734;2024-02-15T07:30:35;1.17;;;0.77;;
51332;SDS011;37417;48.118;11.734;2024-02-15T07:33:22;2.08;;;1.02;;
51332;SDS011;37417;48.118;11.734;2024-02-15T07:36:08;1.52;;;0.90;;
51332;SDS011;37417;48.118;11.734;2024-02-15T07:38:54;1.65;;;0.73;;
51332;SDS011;37417;48.118;11.734;2024-02-15T07:41:43;2.17;;;1.00;;
51332;SDS011;37417;48.118;11.734;2024-02-15T07:44:28;1.98;;;1.23;;
51332;SDS011;37417;48.118;11.734;2024-02-15T07:47:15;2.08;;;1.00;;
51332;SDS011;37417;48.118;11.734;2024-02-15T07:50:05;2.65;;;1.27;;
51332;SDS011;37417;48.118;11.734;2024-02-15T07:52:51;2.70;;;1.02;;
51332;SDS011;37417;48.118;11.734;2024-02-15T07:55:36;2.45;;;1.20;;
51332;SDS011;37417;48.118;11.734;2024-02-15T07:58:23;1.55;;;0.77;;
51332;SDS011;37417;48.118;11.734;2024-02-15T08:01:08;0.88;;;0.80;;
51332;SDS011;37417;48.118;11.734;2024-02-15T08:03:56;1.98;;;0.77;;
51332;SDS011;37417;48.118;11.734;2024-02-15T08:06:42;0.75;;;0.57;;
51332;SDS011;37417;48.118;11.734;2024-02-15T08:09:27;1.30;;;0.80;;
51332;SDS011;37417;48.118;11.734;2024-02-15T08:12:13;3.35;;;0.80;;
51332;SDS011;37417;48.118;11.734;2024-02-15T08:14:58;5.05;;;0.70;;
51332;SDS011;37417;48.118;11.734;2024-02-15T08:17:45;3.70;;;0.80;;
51332;SDS011;37417;48.118;11.734;2024-02-15T08:20:33;0.60;;;0.60;;
51332;SDS011;37417;48.118;11.734;2024-02-15T08:23:19;0.20;;;0.20;;
51332;SDS011;37417;48.118;11.734;2024-02-15T08:26:05;2.28;;;0.73;;
51332;SDS011;37417;48.118;11.734;2024-02-15T08:28:50;2.05;;;0.90;;
51332;SDS011;37417;48.118;11.734;2024-02-15T08:31:36;2.53;;;0.70;;
51332;SDS011;37417;48.118;11.734;2024-02-15T08:34:22;2.05;;;0.73;;
51332;SDS011;37417;48.118;11.734;2024-02-15T08:37:07;1.85;;;0.57;;
51332;SDS011;37417;48.118;11.734;2024-02-15T08:39:53;0.93;;;0.35;;
51332;SDS011;37417;48.118;11.734;2024-02-15T08:42:41;1.15;;;0.60;;
51332;SDS011;37417;48.118;11.734;2024-02-15T08:45:27;1.27;;;0.50;;
51332;SDS011;37417;48.118;11.734;2024-02-15T08:48:12;1.20;;;0.50;;
51332;SDS011;37417;48.118;11.734;2024-02-15T08:50:58;0.65;;;0.50;;
51332;SDS011;37417;48.118;11.734;2024-02-15T08:53:44;0.68;;;0.60;;
51332;SDS011;37417;48.118;11.734;2024-02-15T08:56:30;1.15;;;0.50;;
51332;SDS011;37417;48.118;11.734;2024-02-15T08:59:16;2.67;;;0.65;;
51332;SDS011;37417;48.118;11.734;2024-02-15T09:02:02;1.75;;;0.77;;
51332;SDS011;37417;48.118;11.734;2024-02-15T09:04:50;0.98;;;0.50;;
51332;SDS011;37417;48.118;11.734;2024-02-15T09:07:36;1.15;;;0.50;;
51332;SDS011;37417;48.118;11.734;2024-02-15T09:10:22;1.15;;;0.40;;
51332;SDS011;37417;48.118;11.734;2024-02-15T09:13:11;1.33;;;0.70;;
51332;SDS011;37417;48.118;11.734;2024-02-15T09:15:57;0.80;;;0.50;;
51332;SDS011;37417;48.118;11.734;2024-02-15T09:18:42;1.15;;;0.63;;
51332;SDS011;37417;48.118;11.734;2024-02-15T09:21:30;1.48;;;0.70;;
51332;SDS011;37417;48.118;11.734;2024-02-15T09:24:16;1.67;;;0.68;;
51332;SDS011;37417;48.118;11.734;2024-02-15T09:27:01;2.95;;;0.70;;
51332;SDS011;37417;48.118;11.734;2024-02-15T09:29:47;0.22;;;0.22;;
51332;SDS011;37417;48.118;11.734;2024-02-15T09:32:32;0.45;;;0.30;;
51332;SDS011;37417;48.118;11.734;2024-02-15T09:35:20;0.65;;;0.45;;
51332;SDS011;37417;48.118;11.734;2024-02-15T09:38:06;1.13;;;0.43;;
51332;SDS011;37417;48.118;11.734;2024-02-15T09:40:54;5.20;;;0.63;;
51332;SDS011;37417;48.118;11.734;2024-02-15T09:43:40;1.90;;;0.30;;
51332;SDS011;37417;48.118;11.734;2024-02-15T09:46:26;1.13;;;0.40;;
51332;SDS011;37417;48.118;11.734;2024-02-15T09:49:12;0.65;;;0.38;;
51332;SDS011;37417;48.118;11.734;2024-02-15T09:51:57;1.77;;;0.55;;
51332;SDS011;37417;48.118;11.734;2024-02-15T09:54:43;1.25;;;0.47;;
51332;SDS011;37417;48.118;11.734;2024-02-15T09:57:29;1.45;;;0.40;;
51332;SDS011;37417;48.118;11.734;2024-02-15T10:00:17;1.17;;;0.40;;
51332;SDS011;37417;48.118;11.734;2024-02-15T10:03:05;0.77;;;0.45;;
51332;SDS011;37417;48.118;11.734;2024-02-15T10:05:51;0.68;;;0.32;;
51332;SDS011;37417;48.118;11.734;2024-02-15T10:08:37;1.90;;;0.40;;
51332;SDS011;37417;48.118;11.734;2024-02-15T10:11:23;1.70;;;1.00;;
51332;SDS011;37417;48.118;11.734;2024-02-15T10:14:12;1.00;;;0.57;;
51332;SDS011;37417;48.118;11.734;2024-02-15T10:16:57;0.47;;;0.25;;
51332;SDS011;37417;48.118;11.734;2024-02-15T10:20:23;0.38;;;0.22;;
51332;SDS011;37417;48.118;11.734;2024-02-15T10:25:52;1.65;;;0.30;;
51332;SDS011;37417;48.118;11.734;2024-02-15T10:28:40;0.40;;;0.22;;
51332;SDS011;37417;48.118;11.734;2024-02-15T10:31:26;2.00;;;0.40;;
51332;SDS011;37417;48.118;11.734;2024-02-15T10:34:13;0.52;;;0.28;;
51332;SDS011;37417;48.118;11.734;2024-02-15T10:37:12;0.32;;;0.20;;
51332;SDS011;37417;48.118;11.734;2024-02-15T10:40:07;1.65;;;0.38;;
51332;SDS011;37417;48.118;11.734;2024-02-15T10:42:52;0.75;;;0.35;;
51332;SDS011;37417;48.118;11.734;2024-02-15T10:45:41;0.90;;;0.40;;
51332;SDS011;37417;48.118;11.734;2024-02-15T10:48:27;2.40;;;0.57;;
51332;SDS011;37417;48.118;11.734;2024-02-15T10:51:15;0.52;;;0.40;;
51332;SDS011;37417;48.118;11.734;2024-02-15T10:54:02;0.65;;;0.35;;
51332;SDS011;37417;48.118;11.734;2024-02-15T10:56:49;0.85;;;0.30;;
51332;SDS011;37417;48.118;11.734;2024-02-15T10:59:37;0.95;;;0.32;;
51332;SDS011;37417;48.118;11.734;2024-02-15T11:05:09;1.17;;;0.30;;
51332;SDS011;37417;48.118;11.734;2024-02-15T11:07:55;0.98;;;0.47;;
51332;SDS011;37417;48.118;11.734;2024-02-15T11:10:42;1.17;;;0.35;;
51332;SDS011;37417;48.118;11.734;2024-02-15T11:13:28;0.88;;;0.50;;
51332;SDS011;37417;48.118;11.734;2024-02-15T11:16:57;0.50;;;0.20;;
51332;SDS011;37417;48.118;11.734;2024-02-15T11:22:21;0.35;;;0.25;;
51332;SDS011;37417;48.118;11.734;2024-02-15T11:25:07;3.03;;;0.50;;
51332;SDS011;37417;48.118;11.734;2024-02-15T11:27:57;2.75;;;0.30;;
51332;SDS011;37417;48.118;11.734;2024-02-15T11:30:43;0.88;;;0.40;;
51332;SDS011;37417;48.118;11.734;2024-02-15T11:33:31;1.65;;;0.40;;
51332;SDS011;37417;48.118;11.734;2024-02-15T11:36:17;1.10;;;0.55;;
51332;SDS011;37417;48.118;11.734;2024-02-15T11:42:26;0.98;;;0.20;;
51332;SDS011;37417;48.118;11.734;2024-02-15T11:45:14;1.58;;;0.57;;
51332;SDS011;37417;48.118;11.734;2024-02-15T11:48:00;0.30;;;0.30;;
51332;SDS011;37417;48.118;11.734;2024-02-15T11:50:46;0.93;;;0.43;;
51332;SDS011;37417;48.118;11.734;2024-02-15T11:53:32;0.50;;;0.32;;
51332;SDS011;37417;48.118;11.734;2024-02-15T11:56:18;0.40;;;0.30;;
51332;SDS011;37417;48.118;11.734;2024-02-15T11:59:04;1.38;;;0.68;;
51332;SDS011;37417;48.118;11.734;2024-02-15T12:01:51;0.43;;;0.30;;
51332;SDS011;37417;48.118;11.734;2024-02-15T12:04:56;0.95;;;0.45;;
51332;SDS011;37417;48.118;11.734;2024-02-15T12:08:01;1.00;;;0.38;;
51332;SDS011;37417;48.118;11.734;2024-02-15T12:11:05;0.45;;;0.30;;
51332;SDS011;37417;48.118;11.734;2024-02-15T12:14:12;1.00;;;0.40;;
51332;SDS011;37417;48.118;11.734;2024-02-15T12:17:16;1.27;;;0.47;;
51332;SDS011;37417;48.118;11.734;2024-02-15T12:20:20;1.35;;;0.70;;
51332;SDS011;37417;48.118;11.734;2024-02-15T12:23:10;1.13;;;0.63;;
51332;SDS011;37417;48.118;11.734;2024-02-15T12:25:56;3.22;;;0.90;;
51332;SDS011;37417;48.118;11.734;2024-02-15T12:28:43;1.30;;;0.43;;
51332;SDS011;37417;48.118;11.734;2024-02-15T12:31:29;0.77;;;0.40;;
51332;SDS011;37417;48.118;11.734;2024-02-15T12:34:14;1.65;;;0.55;;
51332;SDS011;37417;48.118;11.734;2024-02-15T12:37:05;0.85;;;0.45;;
51332;SDS011;37417;48.118;11.734;2024-02-15T12:39:52;0.85;;;0.38;;
51332;SDS011;37417;48.118;11.734;2024-02-15T12:42:38;1.00;;;0.68;;
51332;SDS011;37417;48.118;11.734;2024-02-15T12:45:24;0.85;;;0.63;;
51332;SDS011;37417;48.118;11.734;2024-02-15T12:48:14;0.73;;;0.43;;
51332;SDS011;37417;48.118;11.734;2024-02-15T12:51:00;1.00;;;0.50;;
51332;SDS011;37417;48.118;11.734;2024-02-15T12:54:07;1.02;;;0.60;;
51332;SDS011;37417;48.118;11.734;2024-02-15T12:56:53;1.33;;;0.40;;
51332;SDS011;37417;48.118;11.734;2024-02-15T12:59:53;1.10;;;0.68;;
51332;SDS011;37417;48.118;11.734;2024-02-15T13:02:38;3.97;;;0.77;;
51332;SDS011;37417;48.118;11.734;2024-02-15T13:05:27;0.85;;;0.73;;
51332;SDS011;37417;48.118;11.734;2024-02-15T13:08:13;2.72;;;0.70;;
51332;SDS011;37417;48.118;11.734;2024-02-15T13:10:59;1.30;;;0.60;;
51332;SDS011;37417;48.118;11.734;2024-02-15T13:13:48;1.17;;;0.45;;
51332;SDS011;37417;48.118;11.734;2024-02-15T13:16:33;0.60;;;0.38;;
51332;SDS011;37417;48.118;11.734;2024-02-15T13:19:19;0.82;;;0.40;;
51332;SDS011;37417;48.118;11.734;2024-02-15T13:22:06;1.17;;;0.60;;
51332;SDS011;37417;48.118;11.734;2024-02-15T13:24:54;1.15;;;0.40;;
51332;SDS011;37417;48.118;11.734;2024-02-15T13:27:40;0.95;;;0.30;;
51332;SDS011;37417;48.118;11.734;2024-02-15T13:30:26;0.73;;;0.55;;
51332;SDS011;37417;48.118;11.734;2024-02-15T13:33:15;2.75;;;0.50;;
51332;SDS011;37417;48.118;11.734;2024-02-15T13:36:01;0.73;;;0.45;;
51332;SDS011;37417;48.118;11.734;2024-02-15T13:38:47;2.28;;;0.30;;
51332;SDS011;37417;48.118;11.734;2024-02-15T13:41:32;1.02;;;0.50;;
51332;SDS011;37417;48.118;11.734;2024-02-15T13:44:18;1.10;;;0.60;;
51332;SDS011;37417;48.118;11.734;2024-02-15T13:47:04;1.67;;;0.60;;
51332;SDS011;37417;48.118;11.734;2024-02-15T13:49:50;1.20;;;0.40;;
51332;SDS011;37417;48.118;11.734;2024-02-15T13:52:36;0.95;;;0.55;;
51332;SDS011;37417;48.118;11.734;2024-02-15T13:55:21;0.73;;;0.60;;
51332;SDS011;37417;48.118;11.734;2024-02-15T13:58:07;0.85;;;0.47;;
51332;SDS011;37417;48.118;11.734;2024-02-15T14:00:54;0.63;;;0.60;;
51332;SDS011;37417;48.118;11.734;2024-02-15T14:03:42;3.60;;;0.68;;
51332;SDS011;37417;48.118;11.734;2024-02-15T14:06:28;1.10;;;0.40;;
51332;SDS011;37417;48.118;11.734;2024-02-15T14:09:14;1.65;;;0.55;;
51332;SDS011;37417;48.118;11.734;2024-02-15T14:11:59;0.30;;;0.30;;
51332;SDS011;37417;48.118;11.734;2024-02-15T14:14:47;1.52;;;0.50;;
51332;SDS011;37417;48.118;11.734;2024-02-15T14:17:33;4.13;;;0.50;;
51332;SDS011;37417;48.118;11.734;2024-02-15T14:20:18;1.45;;;0.60;;
51332;SDS011;37417;48.118;11.734;2024-02-15T14:25:58;2.10;;;0.70;;
51332;SDS011;37417;48.118;11.734;2024-02-15T14:28:46;0.90;;;0.52;;
51332;SDS011;37417;48.118;11.734;2024-02-15T14:31:31;2.63;;;0.73;;
51332;SDS011;37417;48.118;11.734;2024-02-15T14:34:35;1.58;;;0.60;;
51332;SDS011;37417;48.118;11.734;2024-02-15T14:37:22;0.93;;;0.80;;
51332;SDS011;37417;48.118;11.734;2024-02-15T14:40:10;0.75;;;0.63;;
51332;SDS011;37417;48.118;11.734;2024-02-15T14:42:55;1.27;;;0.68;;
51332;SDS011;37417;48.118;11.734;2024-02-15T14:45:41;0.68;;;0.60;;
51332;SDS011;37417;48.118;11.734;2024-02-15T14:48:26;2.80;;;0.50;;
51332;SDS011;37417;48.118;11.734;2024-02-15T14:51:15;1.40;;;0.50;;
51332;SDS011;37417;48.118;11.734;2024-02-15T14:54:03;1.23;;;0.77;;
51332;SDS011;37417;48.118;11.734;2024-02-15T14:56:49;0.85;;;0.40;;
51332;SDS011;37417;48.118;11.734;2024-02-15T14:59:34;1.25;;;0.40;;
51332;SDS011;37417;48.118;11.734;2024-02-15T15:02:21;1.05;;;0.40;;
51332;SDS011;37417;48.118;11.734;2024-02-15T15:05:06;1.58;;;0.70;;
51332;SDS011;37417;48.118;11.734;2024-02-15T15:08:10;0.88;;;0.52;;
51332;SDS011;37417;48.118;11.734;2024-02-15T15:11:15;0.90;;;0.50;;
51332;SDS011;37417;48.118;11.734;2024-02-15T15:14:19;0.93;;;0.47;;
51332;SDS011;37417;48.118;11.734;2024-02-15T15:17:04;1.38;;;0.65;;
51332;SDS011;37417;48.118;11.734;2024-02-15T15:19:50;1.50;;;0.65;;
51332;SDS011;37417;48.118;11.734;2024-02-15T15:22:36;0.75;;;0.75;;
51332;SDS011;37417;48.118;11.734;2024-02-15T15:25:22;0.85;;;0.63;;
51332;SDS011;37417;48.118;11.734;2024-02-15T15:28:09;1.33;;;0.75;;
51332;SDS011;37417;48.118;11.734;2024-02-15T15:30:55;1.10;;;0.50;;
51332;SDS011;37417;48.118;11.734;2024-02-15T15:33:42;0.80;;;0.63;;
51332;SDS011;37417;48.118;11.734;2024-02-15T15:36:27;1.20;;;0.65;;
51332;SDS011;37417;48.118;11.734;2024-02-15T15:39:14;1.42;;;0.90;;
51332;SDS011;37417;48.118;11.734;2024-02-15T15:42:01;1.55;;;0.65;;
51332;SDS011;37417;48.118;11.734;2024-02-15T15:44:47;0.85;;;0.50;;
51332;SDS011;37417;48.118;11.734;2024-02-15T15:47:33;1.15;;;0.70;;
51332;SDS011;37417;48.118;11.734;2024-02-15T15:50:18;4.57;;;0.90;;
51332;SDS011;37417;48.118;11.734;2024-02-15T15:53:04;5.75;;;0.70;;
51332;SDS011;37417;48.118;11.734;2024-02-15T15:55:50;0.73;;;0.55;;
51332;SDS011;37417;48.118;11.734;2024-02-15T15:58:35;1.63;;;0.75;;
51332;SDS011;37417;48.118;11.734;2024-02-15T16:01:21;0.80;;;0.70;;
51332;SDS011;37417;48.118;11.734;2024-02-15T16:04:07;3.55;;;0.70;;
51332;SDS011;37417;48.118;11.734;2024-02-15T16:06:53;0.70;;;0.57;;
51332;SDS011;37417;48.118;11.734;2024-02-15T16:09:39;1.88;;;0.70;;
51332;SDS011;37417;48.118;11.734;2024-02-15T16:12:29;1.80;;;0.85;;
51332;SDS011;37417;48.118;11.734;2024-02-15T16:15:17;1.60;;;0.95;;
51332;SDS011;37417;48.118;11.734;2024-02-15T16:18:04;5.47;;;1.05;;
51332;SDS011;37417;48.118;11.734;2024-02-15T16:20:49;1.95;;;0.88;;
51332;SDS011;37417;48.118;11.734;2024-02-15T16:23:35;1.23;;;0.73;;
51332;SDS011;37417;48.118;11.734;2024-02-15T16:26:20;0.77;;;0.60;;
51332;SDS011;37417;48.118;11.734;2024-02-15T16:29:06;2.05;;;0.77;;
51332;SDS011;37417;48.118;11.734;2024-02-15T16:31:52;2.83;;;1.02;;
51332;SDS011;37417;48.118;11.734;2024-02-15T16:34:38;1.52;;;0.95;;
51332;SDS011;37417;48.118;11.734;2024-02-15T16:37:26;1.08;;;0.98;;
51332;SDS011;37417;48.118;11.734;2024-02-15T16:40:12;2.13;;;1.00;;
51332;SDS011;37417;48.118;11.734;2024-02-15T16:42:58;2.00;;;0.80;;
51332;SDS011;37417;48.118;11.734;2024-02-15T16:45:43;3.22;;;1.08;;
51332;SDS011;37417;48.118;11.734;2024-02-15T16:48:30;6.50;;;1.27;;